Stratton, Ohio
Current Conditions -  °F | °C
As of 8:47 PM on Thursday 23 Oct 2014 (Local Time) from KBVI Reporting Station
Clear Clear  
Wind Chill: 45°   Ceiling: Unl
Heat Index: 48°   Visibility: 10mi
Dew Point: 43°   Wind: 7mph
Humidity: 82%   Direction: 310°NW
Pressure: 30.1"   Gusts: NA
Location:  40.52°N, 80.63°W
Report Text: KBVI 240047Z 31006KT 10SM CLR 09/06 A3010 RMK LAST
Loading
Personal Weather Stations






























Interactive Weather Map
Tropical Storm Tracking
New forecast layout! Learn more

10-Day Weather Forecast

Advertisements
Track Severe Weather on mobile